Time;durP1;ratioP1;P1;durP2;ratioP2;P2;SDS_P1;SDS_P2;PMS_P1;PMS_P2;Temp;Humidity;BMP_temperature;BMP_pressure;BME280_temperature;BME280_humidity;BME280_pressure;Samples;Min_cycle;Max_cycle;Signal;HPM_P1;HPM_P2
2021/11/03 00:01:01;;;;;;;;;10.25;10.00;;;;;;;;5061543;28;46485;-70
2021/11/03 00:03:27;;;;;;;;;17.25;14.50;;;;;;;;5059369;28;45474;-70
2021/11/03 00:05:53;;;;;;;;;11.00;11.00;;;;;;;;5059286;28;45336;-70
2021/11/03 00:08:22;;;;;;;;;10.00;10.00;;;;;;;;5059636;28;45308;-69
2021/11/03 00:10:49;;;;;;;;;7.50;7.50;;;;;;;;5059577;28;46163;-70
2021/11/03 00:13:15;;;;;;;;;10.75;10.50;;;;;;;;5061750;28;45494;-70
2021/11/03 00:15:40;;;;;;;;;11.50;7.75;;;;;;;;5059603;28;45582;-70
2021/11/03 00:18:06;;;;;;;;;12.25;9.00;;;;;;;;5059392;28;45479;-70
2021/11/03 00:20:31;;;;;;;;;8.75;8.75;;;;;;;;5057548;28;45449;-70
2021/11/03 00:22:57;;;;;;;;;9.50;9.00;;;;;;;;5057948;28;45516;-70
2021/11/03 00:25:23;;;;;;;;;10.50;10.50;;;;;;;;5061124;28;45502;-71
2021/11/03 00:27:48;;;;;;;;;8.50;8.25;;;;;;;;5060005;28;45455;-70
2021/11/03 00:30:13;;;;;;;;;10.75;8.00;;;;;;;;5058957;28;46234;-71
2021/11/03 00:32:38;;;;;;;;;8.25;8.25;;;;;;;;5059180;28;45320;-69
2021/11/03 00:35:04;;;;;;;;;11.75;8.50;;;;;;;;5059072;28;45649;-71
2021/11/03 00:37:29;;;;;;;;;9.00;9.00;;;;;;;;5060149;28;45406;-71
2021/11/03 00:39:54;;;;;;;;;10.50;10.50;;;;;;;;5060440;28;45972;-71
2021/11/03 00:42:19;;;;;;;;;8.50;7.50;;;;;;;;5059123;28;45573;-71
2021/11/03 00:44:45;;;;;;;;;6.00;6.00;;;;;;;;5059329;28;45457;-71
2021/11/03 00:47:10;;;;;;;;;10.25;9.00;;;;;;;;5059496;28;45598;-71
2021/11/03 00:49:35;;;;;;;;;19.00;17.00;;;;;;;;5059234;28;46491;-71
2021/11/03 00:52:01;;;;;;;;;7.00;7.00;;;;;;;;5061232;28;45374;-71
2021/11/03 00:54:27;;;;;;;;;10.00;8.50;;;;;;;;5059130;28;45427;-71
2021/11/03 00:56:52;;;;;;;;;7.00;7.00;;;;;;;;5059122;28;45283;-71
2021/11/03 00:59:17;;;;;;;;;9.00;9.00;;;;;;;;5040479;28;48074;-70
2021/11/03 01:01:42;;;;;;;;;13.75;13.25;;;;;;;;5058664;28;45405;-72
2021/11/03 01:04:07;;;;;;;;;8.00;8.00;;;;;;;;5059748;28;45305;-71
2021/11/03 01:06:34;;;;;;;;;5.25;5.25;;;;;;;;5058995;28;45290;-70
2021/11/03 01:08:59;;;;;;;;;9.75;7.75;;;;;;;;5054630;28;47145;-71
2021/11/03 01:11:24;;;;;;;;;10.25;10.25;;;;;;;;5055468;28;45395;-70
2021/11/03 01:13:49;;;;;;;;;7.75;7.75;;;;;;;;5056109;28;45367;-70
2021/11/03 01:16:15;;;;;;;;;8.50;8.50;;;;;;;;5057417;28;45593;-70
2021/11/03 01:18:40;;;;;;;;;10.75;9.00;;;;;;;;5054630;28;45433;-70
2021/11/03 01:21:05;;;;;;;;;9.50;9.50;;;;;;;;5055238;28;45525;-70
2021/11/03 01:23:31;;;;;;;;;12.25;8.75;;;;;;;;5055349;28;45415;-70
2021/11/03 01:25:56;;;;;;;;;9.75;8.75;;;;;;;;5055586;28;45340;-70
2021/11/03 01:28:22;;;;;;;;;7.50;7.50;;;;;;;;5056918;28;47131;-70
2021/11/03 01:30:47;;;;;;;;;10.00;10.00;;;;;;;;5055493;28;45293;-70
2021/11/03 01:33:18;;;;;;;;;8.75;7.25;;;;;;;;5055004;28;45448;-71
2021/11/03 01:35:44;;;;;;;;;8.75;7.00;;;;;;;;5055157;28;45340;-70
2021/11/03 01:38:09;;;;;;;;;10.00;6.25;;;;;;;;5053437;28;47311;-71
2021/11/03 01:40:36;;;;;;;;;7.00;6.25;;;;;;;;5056108;28;45461;-71
2021/11/03 01:43:02;;;;;;;;;10.25;8.50;;;;;;;;5055324;28;45454;-70
2021/11/03 01:45:30;;;;;;;;;8.25;7.50;;;;;;;;5055140;28;45395;-70
2021/11/03 01:47:57;;;;;;;;;7.00;7.00;;;;;;;;5054067;28;46929;-70
2021/11/03 01:50:26;;;;;;;;;7.75;7.75;;;;;;;;5054968;28;45467;-70
2021/11/03 01:52:53;;;;;;;;;6.50;6.25;;;;;;;;5039555;28;45514;-71
2021/11/03 01:55:19;;;;;;;;;10.00;10.00;;;;;;;;5057378;28;45368;-70
2021/11/03 01:57:49;;;;;;;;;8.50;6.50;;;;;;;;5053435;28;46570;-70
2021/11/03 02:00:18;;;;;;;;;6.75;6.75;;;;;;;;5054701;28;45591;-70
2021/11/03 02:02:44;;;;;;;;;6.25;6.25;;;;;;;;5054659;28;45514;-70
2021/11/03 02:05:10;;;;;;;;;8.75;7.00;;;;;;;;5054851;28;45447;-70
2021/11/03 02:07:35;;;;;;;;;7.25;7.25;;;;;;;;5054608;28;46373;-70
2021/11/03 02:10:01;;;;;;;;;11.25;9.50;;;;;;;;5056677;28;45411;-70
2021/11/03 02:12:27;;;;;;;;;8.50;8.50;;;;;;;;5036650;28;45476;-70
2021/11/03 02:14:53;;;;;;;;;8.00;8.00;;;;;;;;5054517;28;45383;-70
2021/11/03 02:17:19;;;;;;;;;7.50;6.75;;;;;;;;5052966;28;45380;-71
2021/11/03 02:19:44;;;;;;;;;7.00;7.00;;;;;;;;5052712;28;45276;-70
2021/11/03 02:22:15;;;;;;;;;6.75;5.75;;;;;;;;5055861;28;45348;-70
2021/11/03 02:24:45;;;;;;;;;8.00;8.00;;;;;;;;5054221;28;45336;-71
2021/11/03 02:27:12;;;;;;;;;7.75;7.75;;;;;;;;5053989;28;46172;-71
2021/11/03 02:29:37;;;;;;;;;10.25;10.25;;;;;;;;5053988;28;45354;-70
2021/11/03 02:32:16;;;;;;;;;10.50;9.50;;;;;;;;5054491;28;45505;-70
2021/11/03 02:34:41;;;;;;;;;11.25;9.25;;;;;;;;5054667;28;45559;-70
2021/11/03 02:37:25;;;;;;;;;15.00;11.50;;;;;;;;5056187;28;46087;-70
2021/11/03 02:39:53;;;;;;;;;11.00;10.50;;;;;;;;5053882;28;45402;-71
2021/11/03 02:42:19;;;;;;;;;8.50;7.50;;;;;;;;5054255;28;45391;-70
2021/11/03 02:44:46;;;;;;;;;10.75;9.00;;;;;;;;5053864;28;45455;-70
2021/11/03 02:47:11;;;;;;;;;8.50;7.50;;;;;;;;5054179;28;46355;-70
2021/11/03 02:49:37;;;;;;;;;11.25;10.00;;;;;;;;5053899;28;45564;-70
2021/11/03 02:52:09;;;;;;;;;10.00;8.50;;;;;;;;5056446;28;45387;-70
2021/11/03 02:54:35;;;;;;;;;9.25;8.25;;;;;;;;5054086;28;45462;-70
2021/11/03 02:57:02;;;;;;;;;11.75;9.00;;;;;;;;5052245;28;46917;-70
2021/11/03 02:59:28;;;;;;;;;11.50;11.50;;;;;;;;5052149;28;45423;-70
2021/11/03 03:01:55;;;;;;;;;9.50;9.00;;;;;;;;5053973;28;45330;-71
2021/11/03 03:04:21;;;;;;;;;8.50;8.50;;;;;;;;5056077;28;45347;-70
2021/11/03 03:06:46;;;;;;;;;8.50;8.00;;;;;;;;5054169;28;46940;-70
2021/11/03 03:09:12;;;;;;;;;9.75;8.75;;;;;;;;5035728;28;45345;-70
2021/11/03 03:11:40;;;;;;;;;10.25;8.25;;;;;;;;5053943;28;45348;-70
2021/11/03 03:14:06;;;;;;;;;8.75;7.75;;;;;;;;5035439;28;45405;-70
2021/11/03 03:16:32;;;;;;;;;8.00;7.50;;;;;;;;5035798;28;47369;-71
2021/11/03 03:18:58;;;;;;;;;13.75;12.00;;;;;;;;5055064;28;45335;-70
2021/11/03 03:21:23;;;;;;;;;11.75;8.50;;;;;;;;5053411;28;45444;-70
2021/11/03 03:23:49;;;;;;;;;12.00;7.75;;;;;;;;5053332;28;45475;-71
2021/11/03 03:26:15;;;;;;;;;9.75;9.00;;;;;;;;5053252;28;46182;-70
2021/11/03 03:28:41;;;;;;;;;10.50;8.00;;;;;;;;5053191;28;45419;-70
2021/11/03 03:31:07;;;;;;;;;9.25;8.25;;;;;;;;5036754;28;45518;-70
2021/11/03 03:33:33;;;;;;;;;8.25;7.25;;;;;;;;5053331;28;45485;-70
2021/11/03 03:35:58;;;;;;;;;9.50;8.50;;;;;;;;5051721;28;45509;-70
2021/11/03 03:38:23;;;;;;;;;11.00;8.00;;;;;;;;5051786;28;45419;-70
2021/11/03 03:40:48;;;;;;;;;8.50;8.50;;;;;;;;5053714;28;45377;-70
2021/11/03 03:43:14;;;;;;;;;7.00;7.00;;;;;;;;5055155;28;45443;-70
2021/11/03 03:45:39;;;;;;;;;8.50;7.75;;;;;;;;5053097;28;47411;-70
2021/11/03 03:48:04;;;;;;;;;9.25;8.50;;;;;;;;5052950;28;45539;-70
2021/11/03 03:50:30;;;;;;;;;10.25;9.25;;;;;;;;5053104;28;45461;-70
2021/11/03 03:52:55;;;;;;;;;13.00;10.00;;;;;;;;5052954;28;45289;-70
2021/11/03 03:55:20;;;;;;;;;11.50;9.50;;;;;;;;5054755;28;45413;-70
2021/11/03 03:57:46;;;;;;;;;8.25;7.25;;;;;;;;5052873;28;45390;-69
2021/11/03 04:00:13;;;;;;;;;11.00;9.50;;;;;;;;5052751;28;45486;-69
2021/11/03 04:02:38;;;;;;;;;14.00;12.25;;;;;;;;5052835;28;45434;-70
2021/11/03 04:05:04;;;;;;;;;10.75;9.50;;;;;;;;5052728;28;46292;-71
2021/11/03 04:07:29;;;;;;;;;13.25;12.75;;;;;;;;5053710;28;45402;-71
2021/11/03 04:09:54;;;;;;;;;8.25;7.25;;;;;;;;5036421;28;45329;-71
2021/11/03 04:12:20;;;;;;;;;8.75;7.50;;;;;;;;5051962;28;45352;-71
2021/11/03 04:14:45;;;;;;;;;13.50;11.00;;;;;;;;5051013;28;46027;-71
2021/11/03 04:17:10;;;;;;;;;11.75;10.00;;;;;;;;5051351;28;45237;-70
2021/11/03 04:19:35;;;;;;;;;9.75;8.75;;;;;;;;5053303;28;45760;-71
2021/11/03 04:22:00;;;;;;;;;9.00;9.00;;;;;;;;5054753;28;45343;-71
2021/11/03 04:24:26;;;;;;;;;13.25;11.00;;;;;;;;5052364;28;45367;-70
2021/11/03 04:26:51;;;;;;;;;11.00;11.00;;;;;;;;5052208;28;45363;-70
2021/11/03 04:29:17;;;;;;;;;11.50;10.50;;;;;;;;5052908;28;45344;-69
2021/11/03 04:31:42;;;;;;;;;13.75;11.00;;;;;;;;5052836;28;46581;-70
2021/11/03 04:34:07;;;;;;;;;17.25;15.00;;;;;;;;5054637;28;46939;-71
2021/11/03 04:36:33;;;;;;;;;14.25;14.25;;;;;;;;5052205;28;45356;-70
2021/11/03 04:38:59;;;;;;;;;15.75;15.75;;;;;;;;5052826;28;45380;-70
2021/11/03 04:41:25;;;;;;;;;18.50;17.25;;;;;;;;5034070;28;45529;-70
2021/11/03 04:43:50;;;;;;;;;21.00;18.75;;;;;;;;5054349;28;47204;-69
2021/11/03 04:46:16;;;;;;;;;20.50;20.50;;;;;;;;5057660;28;45419;-69
2021/11/03 04:48:42;;;;;;;;;23.75;19.25;;;;;;;;5055969;28;45518;-70
2021/11/03 04:51:07;;;;;;;;;19.25;17.75;;;;;;;;5055983;28;45495;-70
2021/11/03 04:53:33;;;;;;;;;14.75;14.75;;;;;;;;5054057;28;45942;-70
2021/11/03 04:55:59;;;;;;;;;22.00;19.50;;;;;;;;5053515;28;45381;-70
2021/11/03 04:58:28;;;;;;;;;21.75;19.25;;;;;;;;5056442;28;45296;-71
2021/11/03 05:00:53;;;;;;;;;23.75;20.50;;;;;;;;5056598;28;45369;-69
2021/11/03 05:03:19;;;;;;;;;22.00;20.50;;;;;;;;5055584;28;46237;-71
2021/11/03 05:05:44;;;;;;;;;22.25;18.75;;;;;;;;5055433;28;45482;-71
2021/11/03 05:08:10;;;;;;;;;21.25;20.50;;;;;;;;5055283;28;45335;-71
2021/11/03 05:10:35;;;;;;;;;21.00;18.00;;;;;;;;5036383;28;45474;-70
2021/11/03 05:13:01;;;;;;;;;25.50;20.50;;;;;;;;5057115;28;46125;-70
2021/11/03 05:15:26;;;;;;;;;21.00;20.00;;;;;;;;5054883;28;45461;-71
2021/11/03 05:17:51;;;;;;;;;22.00;21.00;;;;;;;;5054687;28;45563;-70
2021/11/03 05:20:17;;;;;;;;;23.00;20.25;;;;;;;;5054704;28;45529;-70
2021/11/03 05:22:42;;;;;;;;;22.50;19.75;;;;;;;;5055046;28;47157;-70
2021/11/03 05:25:08;;;;;;;;;27.50;24.00;;;;;;;;5057011;28;45411;-69
2021/11/03 05:27:33;;;;;;;;;21.50;19.75;;;;;;;;5054866;28;45338;-70
2021/11/03 05:29:58;;;;;;;;;23.25;22.00;;;;;;;;5054712;28;45318;-70
2021/11/03 05:32:23;;;;;;;;;21.25;19.50;;;;;;;;5053101;28;45422;-70
2021/11/03 05:34:49;;;;;;;;;30.25;22.00;;;;;;;;5053596;28;45403;-70
2021/11/03 05:37:15;;;;;;;;;26.25;22.50;;;;;;;;5038865;28;45347;-69
2021/11/03 05:39:40;;;;;;;;;19.00;19.00;;;;;;;;5053930;28;45665;-70
2021/11/03 05:42:06;;;;;;;;;29.50;22.50;;;;;;;;5054123;28;46179;-71
2021/11/03 05:44:31;;;;;;;;;24.00;20.25;;;;;;;;5054433;28;45427;-71
2021/11/03 05:46:57;;;;;;;;;27.50;24.50;;;;;;;;5054399;28;45569;-70
2021/11/03 05:49:24;;;;;;;;;21.00;18.75;;;;;;;;5056014;28;45421;-69
2021/11/03 05:51:50;;;;;;;;;22.75;21.00;;;;;;;;5053381;28;46278;-72
2021/11/03 05:54:18;;;;;;;;;21.00;19.75;;;;;;;;5052817;28;45465;-70
2021/11/03 05:56:44;;;;;;;;;30.75;28.75;;;;;;;;5054231;28;46060;-71
2021/11/03 05:59:09;;;;;;;;;20.00;18.25;;;;;;;;5053639;28;45392;-71
2021/11/03 06:01:34;;;;;;;;;25.75;25.00;;;;;;;;5053569;28;45987;-70
2021/11/03 06:03:59;;;;;;;;;20.50;19.75;;;;;;;;5055463;28;45726;-70
2021/11/03 06:06:25;;;;;;;;;23.00;20.00;;;;;;;;5053572;28;45414;-70
2021/11/03 06:08:51;;;;;;;;;25.75;23.50;;;;;;;;5053474;28;45388;-70
2021/11/03 06:11:18;;;;;;;;;25.25;24.00;;;;;;;;5051379;28;46133;-70
2021/11/03 06:13:44;;;;;;;;;24.25;21.75;;;;;;;;5052941;28;45316;-69
2021/11/03 06:16:09;;;;;;;;;25.50;21.00;;;;;;;;5054396;28;45358;-71
2021/11/03 06:18:34;;;;;;;;;17.00;14.25;;;;;;;;5053007;28;45317;-71
2021/11/03 06:21:00;;;;;;;;;18.25;18.25;;;;;;;;5052486;28;45468;-70
2021/11/03 06:23:25;;;;;;;;;22.00;21.25;;;;;;;;5052770;28;45490;-70
2021/11/03 06:25:50;;;;;;;;;23.50;23.50;;;;;;;;5053560;28;45347;-71
2021/11/03 06:28:16;;;;;;;;;22.75;19.25;;;;;;;;5054859;28;45384;-70
2021/11/03 06:30:41;;;;;;;;;29.50;23.00;;;;;;;;5052781;28;46984;-70
2021/11/03 06:33:07;;;;;;;;;19.00;16.75;;;;;;;;5051992;28;45434;-71
2021/11/03 06:35:33;;;;;;;;;23.25;20.25;;;;;;;;5052555;28;45482;-71
2021/11/03 06:37:59;;;;;;;;;23.75;18.00;;;;;;;;5034601;28;45496;-71
2021/11/03 06:40:25;;;;;;;;;22.75;21.00;;;;;;;;5054245;28;46091;-70
2021/11/03 06:42:50;;;;;;;;;20.75;20.75;;;;;;;;5052907;28;45521;-69
2021/11/03 06:45:17;;;;;;;;;24.25;20.75;;;;;;;;5052582;28;45363;-70
2021/11/03 06:47:43;;;;;;;;;24.25;23.25;;;;;;;;5052331;28;45564;-70
2021/11/03 06:50:08;;;;;;;;;25.25;22.75;;;;;;;;5050795;28;47343;-70
2021/11/03 06:52:34;;;;;;;;;18.50;18.00;;;;;;;;5052998;28;45318;-70
2021/11/03 06:54:59;;;;;;;;;22.25;17.50;;;;;;;;5051990;28;45359;-70
2021/11/03 06:57:25;;;;;;;;;25.50;22.50;;;;;;;;5052360;28;45588;-69
2021/11/03 06:59:51;;;;;;;;;25.00;25.00;;;;;;;;5051848;28;46287;-70
2021/11/03 07:02:16;;;;;;;;;26.25;23.75;;;;;;;;5052244;28;45322;-70
2021/11/03 07:04:42;;;;;;;;;24.75;21.50;;;;;;;;5052903;28;45486;-70
2021/11/03 07:07:07;;;;;;;;;22.00;17.50;;;;;;;;5053721;28;45420;-71
2021/11/03 07:09:32;;;;;;;;;21.25;17.25;;;;;;;;5033353;28;46030;-71
2021/11/03 07:11:57;;;;;;;;;31.25;25.75;;;;;;;;5050382;28;45521;-71
2021/11/03 07:14:22;;;;;;;;;23.75;19.75;;;;;;;;5044992;28;45551;-72
2021/11/03 07:16:48;;;;;;;;;21.25;20.00;;;;;;;;5051808;28;45332;-71
2021/11/03 07:19:13;;;;;;;;;23.25;20.50;;;;;;;;5053730;28;45493;-73
2021/11/03 07:21:39;;;;;;;;;17.50;16.50;;;;;;;;5051063;28;45285;-71
2021/11/03 07:24:05;;;;;;;;;18.00;15.00;;;;;;;;5051560;28;45410;-71
2021/11/03 07:26:30;;;;;;;;;23.50;19.50;;;;;;;;5051708;28;45369;-71
2021/11/03 07:28:55;;;;;;;;;17.75;16.75;;;;;;;;5032692;28;46096;-73
2021/11/03 07:31:21;;;;;;;;;20.75;16.00;;;;;;;;5053012;28;45204;-72
2021/11/03 07:33:46;;;;;;;;;22.25;21.25;;;;;;;;5050379;28;46911;-73
2021/11/03 07:36:14;;;;;;;;;21.75;18.50;;;;;;;;5048423;28;45552;-73
2021/11/03 07:38:39;;;;;;;;;16.25;15.00;;;;;;;;5049121;28;46520;-72
2021/11/03 07:41:04;;;;;;;;;24.25;23.00;;;;;;;;5050637;28;46320;-73
2021/11/03 07:43:31;;;;;;;;;22.00;18.75;;;;;;;;5052188;28;45473;-72
2021/11/03 07:45:56;;;;;;;;;21.75;20.75;;;;;;;;5052726;28;45525;-72
2021/11/03 07:48:23;;;;;;;;;14.75;14.75;;;;;;;;5050279;28;46515;-72
2021/11/03 07:50:51;;;;;;;;;20.50;19.25;;;;;;;;5050776;28;45312;-72
2021/11/03 07:53:16;;;;;;;;;19.00;18.25;;;;;;;;5050783;28;45496;-72
2021/11/03 07:55:43;;;;;;;;;19.00;16.75;;;;;;;;5051118;28;45597;-73
2021/11/03 07:58:11;;;;;;;;;25.00;21.00;;;;;;;;5052085;28;46435;-73
2021/11/03 08:00:37;;;;;;;;;13.50;13.50;;;;;;;;5050504;28;45387;-72
2021/11/03 08:03:02;;;;;;;;;22.25;20.00;;;;;;;;5050199;28;45810;-73
2021/11/03 08:05:28;;;;;;;;;21.00;17.25;;;;;;;;5049238;28;46035;-72
2021/11/03 08:07:54;;;;;;;;;24.50;18.25;;;;;;;;5049330;28;45397;-72
2021/11/03 08:10:20;;;;;;;;;21.00;19.00;;;;;;;;5052788;28;45407;-72
2021/11/03 08:12:45;;;;;;;;;25.00;21.75;;;;;;;;5049066;28;45531;-71
2021/11/03 08:15:11;;;;;;;;;26.25;22.75;;;;;;;;5050354;28;45332;-70
2021/11/03 08:17:37;;;;;;;;;18.25;17.00;;;;;;;;5052224;28;45772;-70
2021/11/03 08:20:04;;;;;;;;;20.25;19.00;;;;;;;;5053923;28;45538;-71
2021/11/03 08:22:31;;;;;;;;;18.50;18.25;;;;;;;;5055925;28;45372;-72
2021/11/03 08:24:56;;;;;;;;;23.75;20.00;;;;;;;;5055481;28;45505;-72
2021/11/03 08:27:22;;;;;;;;;20.00;19.75;;;;;;;;5054562;28;46101;-71
2021/11/03 08:29:48;;;;;;;;;27.25;24.00;;;;;;;;5054825;28;45500;-71
2021/11/03 08:32:15;;;;;;;;;23.75;18.50;;;;;;;;5054775;28;45386;-72
2021/11/03 08:34:40;;;;;;;;;22.00;20.50;;;;;;;;5053779;28;45451;-71
2021/11/03 08:37:08;;;;;;;;;20.00;18.50;;;;;;;;5056920;28;47105;-71
2021/11/03 08:39:34;;;;;;;;;21.50;20.00;;;;;;;;5053671;28;45328;-72
2021/11/03 08:42:00;;;;;;;;;20.75;16.75;;;;;;;;5054640;28;45563;-71
2021/11/03 08:44:27;;;;;;;;;19.50;17.00;;;;;;;;5053919;28;45381;-72
2021/11/03 08:46:52;;;;;;;;;16.00;13.50;;;;;;;;5051320;28;47185;-72
2021/11/03 08:49:18;;;;;;;;;20.00;17.25;;;;;;;;5055385;28;45472;-72
2021/11/03 08:51:43;;;;;;;;;27.25;19.50;;;;;;;;5052672;28;45553;-72
2021/11/03 08:54:08;;;;;;;;;20.25;19.00;;;;;;;;5053502;28;45298;-70
2021/11/03 08:56:36;;;;;;;;;15.25;15.25;;;;;;;;5054342;28;45451;-70
2021/11/03 08:59:03;;;;;;;;;26.00;20.50;;;;;;;;5054123;28;45400;-71
2021/11/03 09:01:28;;;;;;;;;20.25;16.75;;;;;;;;5054809;28;45283;-70
2021/11/03 09:03:54;;;;;;;;;15.50;15.50;;;;;;;;5035989;28;45446;-71
2021/11/03 09:06:19;;;;;;;;;16.50;16.50;;;;;;;;5054027;28;46485;-71
2021/11/03 09:08:49;;;;;;;;;15.25;14.75;;;;;;;;5054046;28;45346;-71
2021/11/03 09:11:14;;;;;;;;;20.50;19.25;;;;;;;;5054305;28;45503;-71
2021/11/03 09:13:40;;;;;;;;;19.50;16.25;;;;;;;;5054814;28;45361;-71
2021/11/03 09:16:05;;;;;;;;;17.50;17.00;;;;;;;;5041524;28;46142;-71
2021/11/03 09:18:31;;;;;;;;;24.50;21.50;;;;;;;;5054131;28;45324;-72
2021/11/03 09:20:57;;;;;;;;;22.75;19.50;;;;;;;;5053900;28;45667;-71
2021/11/03 09:23:23;;;;;;;;;22.00;20.00;;;;;;;;5054164;28;45238;-72
2021/11/03 09:25:50;;;;;;;;;22.25;18.75;;;;;;;;5052820;28;45567;-72
2021/11/03 09:28:16;;;;;;;;;24.75;22.25;;;;;;;;5055294;28;45377;-72
2021/11/03 09:30:41;;;;;;;;;23.50;23.50;;;;;;;;5051670;28;45433;-70
2021/11/03 09:33:07;;;;;;;;;25.75;22.25;;;;;;;;5053705;28;45489;-72
2021/11/03 09:35:34;;;;;;;;;20.25;17.00;;;;;;;;5053555;28;47056;-71
2021/11/03 09:38:00;;;;;;;;;18.50;13.75;;;;;;;;5053655;28;45452;-72
2021/11/03 09:40:30;;;;;;;;;19.50;19.00;;;;;;;;5054575;28;45260;-71
2021/11/03 09:42:56;;;;;;;;;11.75;11.75;;;;;;;;5054926;28;45381;-72
2021/11/03 09:45:26;;;;;;;;;15.00;14.25;;;;;;;;5052670;28;45986;-71
2021/11/03 09:48:17;;;;;;;;;12.00;12.00;;;;;;;;5053721;28;45882;-72
2021/11/03 09:50:45;;;;;;;;;19.50;17.75;;;;;;;;5049516;28;45350;-71
2021/11/03 09:53:31;;;;;;;;;17.50;15.25;;;;;;;;5053666;28;45304;-71
2021/11/03 09:55:57;;;;;;;;;15.50;14.50;;;;;;;;5032849;28;45415;-72
2021/11/03 09:58:32;;;;;;;;;15.00;14.25;;;;;;;;5054817;28;45402;-72
2021/11/03 10:00:57;;;;;;;;;19.50;15.50;;;;;;;;5054627;28;45380;-71
2021/11/03 10:03:22;;;;;;;;;13.25;12.25;;;;;;;;5053388;28;45472;-72
2021/11/03 10:06:06;;;;;;;;;16.00;15.50;;;;;;;;5052520;28;46437;-71
2021/11/03 10:08:34;;;;;;;;;25.25;20.25;;;;;;;;5051846;28;45433;-71
2021/11/03 10:11:03;;;;;;;;;18.00;15.00;;;;;;;;5052780;28;45458;-72
2021/11/03 10:13:34;;;;;;;;;11.75;11.75;;;;;;;;5053765;28;45322;-72
2021/11/03 10:16:01;;;;;;;;;15.75;13.75;;;;;;;;5054744;28;47414;-72
2021/11/03 10:18:28;;;;;;;;;14.25;13.25;;;;;;;;5052725;28;45441;-71
2021/11/03 10:21:03;;;;;;;;;16.00;14.00;;;;;;;;5052849;28;45352;-72
2021/11/03 10:23:57;;;;;;;;;13.75;13.75;;;;;;;;5047494;28;45660;-71
2021/11/03 10:26:23;;;;;;;;;14.50;14.50;;;;;;;;5038983;28;45603;-72
2021/11/03 10:28:52;;;;;;;;;9.75;9.75;;;;;;;;5054528;28;45360;-70
2021/11/03 10:31:23;;;;;;;;;15.00;13.00;;;;;;;;5057176;28;45300;-70
2021/11/03 10:33:57;;;;;;;;;15.00;13.50;;;;;;;;5036351;28;45675;-72
2021/11/03 10:36:23;;;;;;;;;15.25;14.25;;;;;;;;5051874;28;46314;-71
2021/11/03 10:38:52;;;;;;;;;14.50;13.25;;;;;;;;5052417;28;45375;-71
2021/11/03 10:41:21;;;;;;;;;15.00;13.75;;;;;;;;5051301;28;45599;-71
2021/11/03 10:43:58;;;;;;;;;15.00;14.50;;;;;;;;5051401;28;45338;-72
2021/11/03 10:46:26;;;;;;;;;12.25;10.75;;;;;;;;5050469;28;46387;-72
2021/11/03 10:49:06;;;;;;;;;13.00;12.00;;;;;;;;5051237;28;45379;-72
2021/11/03 10:51:38;;;;;;;;;17.25;14.50;;;;;;;;5051674;28;45432;-71
2021/11/03 10:54:09;;;;;;;;;14.50;12.00;;;;;;;;5051637;28;45348;-72
2021/11/03 10:56:45;;;;;;;;;0.25;0.25;;;;;;;;5052254;28;46304;-71
2021/11/03 10:59:16;;;;;;;;;13.25;13.25;;;;;;;;5051813;28;45425;-71
2021/11/03 11:01:45;;;;;;;;;10.50;10.50;;;;;;;;5051856;28;45439;-71
2021/11/03 11:04:31;;;;;;;;;10.50;7.75;;;;;;;;5054352;28;45481;-72
2021/11/03 11:06:58;;;;;;;;;7.00;7.00;;;;;;;;5053349;28;45472;-72
2021/11/03 11:09:43;;;;;;;;;8.75;8.75;;;;;;;;5049527;28;45332;-73
2021/11/03 11:12:12;;;;;;;;;10.00;9.00;;;;;;;;5049915;28;45343;-71
2021/11/03 11:14:37;;;;;;;;;11.00;11.00;;;;;;;;5051454;28;45523;-71
2021/11/03 11:17:08;;;;;;;;;10.00;9.25;;;;;;;;5051080;28;46029;-72
2021/11/03 11:19:43;;;;;;;;;8.75;8.75;;;;;;;;5051880;28;45400;-72
2021/11/03 11:22:27;;;;;;;;;11.75;11.75;;;;;;;;5051509;28;45450;-70
2021/11/03 11:25:08;;;;;;;;;10.75;10.00;;;;;;;;5051028;28;45477;-72
2021/11/03 11:27:35;;;;;;;;;7.25;5.50;;;;;;;;5049522;28;46219;-73
2021/11/03 11:30:04;;;;;;;;;14.50;12.50;;;;;;;;5051441;28;45378;-72
2021/11/03 11:32:29;;;;;;;;;13.25;9.00;;;;;;;;5051901;28;45368;-71
2021/11/03 11:35:13;;;;;;;;;8.00;7.00;;;;;;;;5051376;28;45366;-71
2021/11/03 11:37:52;;;;;;;;;8.00;6.25;;;;;;;;5051590;28;46206;-73
2021/11/03 11:40:23;;;;;;;;;6.67;5.67;;;;;;;;5053015;28;45392;-72
2021/11/03 11:43:05;;;;;;;;;9.00;9.00;;;;;;;;5048024;28;45238;-72
2021/11/03 11:45:32;;;;;;;;;8.00;8.00;;;;;;;;5041342;28;45395;-71
2021/11/03 11:48:02;;;;;;;;;10.00;7.00;;;;;;;;5042337;28;46256;-70
2021/11/03 11:50:46;;;;;;;;;7.00;7.00;;;;;;;;5050737;28;45426;-72
2021/11/03 11:53:32;;;;;;;;;14.00;14.00;;;;;;;;5050876;28;45407;-72
2021/11/03 11:56:19;;;;;;;;;10.00;9.00;;;;;;;;5034749;28;45626;-73
2021/11/03 11:58:47;;;;;;;;;9.25;8.25;;;;;;;;5017455;28;46482;-72
2021/11/03 12:01:12;;;;;;;;;6.75;4.75;;;;;;;;5053232;28;45373;-73
2021/11/03 12:03:42;;;;;;;;;7.00;7.00;;;;;;;;5049390;28;45401;-72
2021/11/03 12:06:09;;;;;;;;;6.50;6.50;;;;;;;;5049047;28;45498;-72
2021/11/03 12:08:53;;;;;;;;;10.00;6.50;;;;;;;;5050252;28;45544;-72
2021/11/03 12:11:20;;;;;;;;;7.25;7.00;;;;;;;;5050299;28;45455;-72
2021/11/03 12:13:45;;;;;;;;;4.67;4.67;;;;;;;;5050940;28;45425;-71
2021/11/03 12:16:15;;;;;;;;;12.00;10.00;;;;;;;;5053346;28;45474;-73
2021/11/03 12:18:44;;;;;;;;;6.33;6.33;;;;;;;;5050479;28;47113;-72
2021/11/03 12:21:17;;;;;;;;;7.67;6.00;;;;;;;;5050534;28;45419;-72
2021/11/03 12:24:05;;;;;;;;;10.50;8.00;;;;;;;;5049603;28;45441;-73
2021/11/03 12:26:33;;;;;;;;;10.00;5.25;;;;;;;;4970503;28;45510;-72
2021/11/03 12:29:16;;;;;;;;;3.25;2.75;;;;;;;;4970849;28;47410;-72
2021/11/03 12:31:42;;;;;;;;;5.00;4.00;;;;;;;;4955186;28;45514;-71
2021/11/03 12:34:07;;;;;;;;;4.50;4.50;;;;;;;;4957438;28;45245;-74
2021/11/03 12:36:34;;;;;;;;;6.25;5.00;;;;;;;;4959502;28;45440;-73
2021/11/03 12:39:03;;;;;;;;;3.50;3.50;;;;;;;;4958763;28;47348;-72
2021/11/03 12:41:30;;;;;;;;;5.75;5.75;;;;;;;;4958119;28;45465;-73
2021/11/03 12:43:58;;;;;;;;;5.50;4.25;;;;;;;;4955326;28;45373;-72
2021/11/03 12:46:25;;;;;;;;;5.75;5.25;;;;;;;;4970345;28;45326;-73
2021/11/03 12:48:58;;;;;;;;;6.50;6.50;;;;;;;;4968982;28;45529;-73
2021/11/03 12:51:53;;;;;;;;;9.00;8.00;;;;;;;;4960925;28;45399;-74
2021/11/03 12:54:20;;;;;;;;;8.25;6.00;;;;;;;;4956616;28;45378;-73
2021/11/03 12:56:57;;;;;;;;;5.00;5.00;;;;;;;;4967369;28;45579;-74
2021/11/03 12:59:24;;;;;;;;;8.25;8.25;;;;;;;;4957865;28;45508;-72
2021/11/03 13:01:53;;;;;;;;;8.25;6.00;;;;;;;;4954557;28;45330;-73
2021/11/03 13:04:22;;;;;;;;;9.00;9.00;;;;;;;;5038927;28;45425;-73
2021/11/03 13:06:50;;;;;;;;;5.50;4.25;;;;;;;;5053483;28;45348;-73
2021/11/03 13:09:32;;;;;;;;;10.75;9.75;;;;;;;;5053483;28;47608;-73
2021/11/03 13:11:58;;;;;;;;;5.00;5.00;;;;;;;;5053692;28;45446;-73
2021/11/03 13:14:27;;;;;;;;;5.00;5.00;;;;;;;;5053977;28;45474;-73
2021/11/03 13:16:55;;;;;;;;;6.00;6.00;;;;;;;;5038309;28;45417;-73
2021/11/03 13:19:20;;;;;;;;;8.67;8.00;;;;;;;;5053904;28;46369;-73
2021/11/03 13:21:46;;;;;;;;;7.33;6.00;;;;;;;;5052417;28;45755;-73
2021/11/03 13:24:15;;;;;;;;;6.00;6.00;;;;;;;;5051946;28;47075;-74
2021/11/03 13:26:41;;;;;;;;;2.67;2.67;;;;;;;;5054092;28;45479;-73
2021/11/03 13:29:07;;;;;;;;;5.67;5.67;;;;;;;;5053381;28;46118;-74
2021/11/03 13:31:38;;;;;;;;;6.33;4.33;;;;;;;;5054231;28;45858;-73
2021/11/03 13:34:15;;;;;;;;;7.00;7.00;;;;;;;;5053017;28;45352;-74
2021/11/03 13:36:41;;;;;;;;;2.00;2.00;;;;;;;;5052815;28;45446;-73
2021/11/03 13:39:15;;;;;;;;;4.00;3.00;;;;;;;;5053242;28;45679;-74
2021/11/03 13:41:42;;;;;;;;;4.67;4.67;;;;;;;;5053348;28;45600;-73
2021/11/03 13:44:25;;;;;;;;;4.33;3.33;;;;;;;;5052536;28;45317;-73
2021/11/03 13:46:56;;;;;;;;;3.67;3.67;;;;;;;;5043546;28;45449;-73
2021/11/03 13:49:23;;;;;;;;;4.67;3.67;;;;;;;;5051191;28;46344;-73
2021/11/03 13:51:58;;;;;;;;;4.67;3.00;;;;;;;;5053135;28;45346;-72
2021/11/03 13:54:31;;;;;;;;;5.33;4.67;;;;;;;;5052611;28;45493;-74
2021/11/03 13:56:57;;;;;;;;;4.00;4.00;;;;;;;;5051236;28;45305;-74
2021/11/03 13:59:28;;;;;;;;;2.67;2.67;;;;;;;;5052132;28;45490;-73
2021/11/03 14:01:55;;;;;;;;;5.25;3.00;;;;;;;;5048287;28;45302;-74
2021/11/03 14:04:23;;;;;;;;;4.75;4.75;;;;;;;;5055260;28;45492;-74
2021/11/03 14:07:07;;;;;;;;;3.00;3.00;;;;;;;;5053483;28;45593;-74
2021/11/03 14:09:32;;;;;;;;;3.00;3.00;;;;;;;;5053252;28;46604;-73
2021/11/03 14:11:59;;;;;;;;;4.25;4.25;;;;;;;;5050282;28;45434;-73
2021/11/03 14:14:25;;;;;;;;;3.25;3.00;;;;;;;;5053309;28;45456;-73
2021/11/03 14:16:53;;;;;;;;;3.25;2.75;;;;;;;;5050233;28;45302;-73
2021/11/03 14:19:26;;;;;;;;;5.00;5.00;;;;;;;;5066602;27;48538;-73
2021/11/03 14:21:52;;;;;;;;;4.25;4.25;;;;;;;;5051080;28;45360;-74
2021/11/03 14:24:18;;;;;;;;;4.00;4.00;;;;;;;;5053446;28;45446;-73
2021/11/03 14:26:43;;;;;;;;;3.25;3.25;;;;;;;;5053919;28;47398;-74
2021/11/03 14:29:09;;;;;;;;;4.75;3.75;;;;;;;;5052992;28;45401;-74
2021/11/03 14:31:34;;;;;;;;;5.50;5.50;;;;;;;;5052905;28;45637;-74